Otagawa — JD3046 — position and weather

sailwx.info

Track history (hours):
 
Tides and Currents Weather Stations Pressure Air Temp Water Temp Dewpoint Dewpoint Depression Visibility Wind Speed Wind Dir Waves Ship Positions

Otagawa

Last reported at 2015-Sep-03 10:20 UTC. Time now 2015-Sep-03 10:55 UTC.
Position N 35°01' E 139°29'.

Length 70 m; draft 4 m.

Type: Cargo ship. MMSI: 431001328.

Date/timePositionNaut miles runAvg speedWind from/ knotsBaromVisibWave heightAir tempDewpointWater temp
2015-Sep-03 10:20N 35°01' E 139°29'810.8
2015-Sep-03 09:33N 35°06' E 139°38'10 9.8
2015-Sep-03 08:33N 35°12' E 139°46'9 9.5
2015-Sep-03 07:33N 35°21' E 139°42'6 6.1
2015-Sep-03 06:33N 35°28' E 139°42'0 0.0
2015-Sep-03 05:33N 35°28' E 139°42'3 3.3
2015-Sep-03 04:32N 35°29' E 139°45'0 0.0
2015-Sep-03 03:32N 35°29' E 139°45'4 4.3
2015-Sep-03 02:33N 35°25' E 139°46'1010.1
2015-Sep-03 01:33N 35°15' E 139°47'1110.7
2015-Sep-03 00:33N 35°05' E 139°43'23 0.7
2015-Sep-01 13:29N 34°50' E 139°21'1010.9
2015-Sep-01 12:32N 34°50' E 139°34'1111.1
2015-Sep-01 11:32N 34°51' E 139°47'1211.5
2015-Sep-01 10:32N 34°54' E 140°01'1111.3
2015-Sep-01 09:33N 35°01' E 140°11'10 9.2
2015-Sep-01 08:30N 35°06' E 140°21'9 9.7
2015-Sep-01 07:31N 35°14' E 140°29'1111.1
2015-Sep-01 06:33N 35°22' E 140°37'1211.2
2015-Sep-01 05:29N 35°32' E 140°45'1111.2
2015-Sep-01 04:33N 35°40' E 140°53'11 9.8
2015-Sep-01 03:24N 35°51' E 140°50'8 7.7
2015-Sep-01 02:24N 35°56' E 140°42'3 3.2
2015-Sep-01 01:33N 35°56' E 140°39'0 0.0
2015-Sep-01 00:30N 35°56' E 140°39'0 0.0
2015-Aug-31 23:33N 35°56' E 140°39'0 0.0
2015-Aug-31 22:30N 35°56' E 140°39'0 0.0
2015-Aug-31 21:24N 35°56' E 140°39'0 0.0
2015-Aug-31 20:30N 35°56' E 140°39'0 0.0
2015-Aug-31 18:24N 35°56' E 140°39'0 0.0
2015-Aug-31 17:30N 35°56' E 140°39'0 0.0
2015-Aug-31 15:30N 35°56' E 140°39'1 1.2
2015-Aug-31 14:33N 35°55' E 140°40'1110.6
2015-Aug-31 13:30N 36°06' E 140°44'53 1.2
2015-Aug-29 18:30N 35°14' E 140°31'1510.7
2015-Aug-29 17:08N 35°04' E 140°19'610.5
2015-Aug-29 16:33N 35°01' E 140°13'1010.1
2015-Aug-29 15:32N 34°55' E 140°02'17 7.7
2015-Aug-29 13:16N 35°02' E 139°43'811.7
2015-Aug-29 12:34N 35°10' E 139°46'1111.0
2015-Aug-29 11:34N 35°21' E 139°42'5 5.2
2015-Aug-29 10:32N 35°26' E 139°41'0 0.3
2015-Aug-29 09:34N 35°27' E 139°41'9 9.0
2015-Aug-29 08:33N 35°32' E 139°50'6 4.9
2015-Aug-29 07:23N 35°37' E 139°46'0 0.0
2015-Aug-29 06:32N 35°37' E 139°46'0 0.0
2015-Aug-29 05:28N 35°37' E 139°46'0 0.0
2015-Aug-29 04:23N 35°37' E 139°46'0 0.0
2015-Aug-29 03:29N 35°37' E 139°46'7 7.1
2015-Aug-29 02:33N 35°32' E 139°52'9 9.4
2015-Aug-29 01:33N 35°24' E 139°46'8 8.3
2015-Aug-29 00:33N 35°16' E 139°47'9 8.9
2015-Aug-28 23:33N 35°07' E 139°46'10 9.4
2015-Aug-28 22:29N 34°57' E 139°44'11 9.6
2015-Aug-28 21:21N 34°53' E 139°56'1011.6
2015-Aug-28 20:31N 34°59' E 140°06'1211.5
2015-Aug-28 19:31N 35°05' E 140°17'1210.6
2015-Aug-28 18:24N 35°14' E 140°28'910.7
2015-Aug-28 17:33N 35°21' E 140°34'1111.0
2015-Aug-28 16:33N 35°30' E 140°43'3310.6
2015-Aug-28 13:26N 36°01' E 140°55'50 1.0
2015-Aug-26 10:16N 35°14' E 140°33'2011.7
2015-Aug-26 08:33N 35°01' E 140°15'10 9.9
2015-Aug-26 07:32N 34°56' E 140°04'16 8.1
2015-Aug-26 05:33N 34°55' E 139°44'1111.0
2015-Aug-26 04:33N 35°06' E 139°45'1010.4
2015-Aug-26 03:33N 35°17' E 139°45'6 5.9
2015-Aug-26 02:31N 35°21' E 139°40'0 0.0
2015-Aug-26 01:31N 35°21' E 139°40'0 0.0
2015-Aug-26 00:31N 35°21' E 139°40'0 0.1
2015-Aug-25 23:31N 35°21' E 139°40'0 0.0
2015-Aug-25 22:31N 35°21' E 139°40'0 0.0
2015-Aug-25 21:31N 35°21' E 139°40'0 0.0
2015-Aug-25 20:31N 35°21' E 139°40'0 0.1
2015-Aug-25 19:31N 35°21' E 139°40'0 0.0
2015-Aug-25 18:31N 35°21' E 139°40'0 0.0
2015-Aug-25 17:31N 35°21' E 139°40'0 0.0
2015-Aug-25 16:31N 35°21' E 139°40'0 0.0
2015-Aug-25 15:31N 35°21' E 139°40'0 0.0
2015-Aug-25 14:31N 35°21' E 139°40'0 0.0
2015-Aug-25 13:31N 35°21' E 139°40'0 0.0
2015-Aug-25 12:31N 35°21' E 139°40'0 0.0
2015-Aug-25 11:31N 35°21' E 139°40'0 0.0
2015-Aug-25 10:31N 35°21' E 139°40'0 0.0
2015-Aug-25 09:31N 35°21' E 139°40'0 0.0
2015-Aug-25 08:31N 35°21' E 139°40'0 0.0
2015-Aug-25 07:31N 35°21' E 139°40'0 0.0
2015-Aug-25 06:31N 35°21' E 139°40'0 0.0
2015-Aug-25 05:31N 35°21' E 139°40'0 0.0
2015-Aug-25 04:31N 35°21' E 139°40'0 0.0
2015-Aug-25 03:31N 35°21' E 139°40'0 0.0
2015-Aug-25 02:31N 35°21' E 139°40'0 0.0
2015-Aug-25 01:31N 35°21' E 139°40'0 0.0
2015-Aug-25 00:31N 35°21' E 139°40'0 0.0
2015-Aug-24 23:31N 35°21' E 139°40'0 0.0
2015-Aug-24 22:31N 35°21' E 139°40'0 0.0
2015-Aug-24 21:31N 35°21' E 139°40'0 0.0
2015-Aug-24 20:31N 35°21' E 139°40'0 0.0
2015-Aug-24 19:31N 35°21' E 139°40'0 0.0
2015-Aug-24 18:31N 35°21' E 139°40'0 0.0
2015-Aug-24 17:31N 35°21' E 139°40'0 0.0
2015-Aug-24 16:31N 35°21' E 139°40'0 0.0
2015-Aug-24 15:31N 35°21' E 139°40'0 0.0
2015-Aug-24 14:31N 35°21' E 139°40'0 0.0
2015-Aug-24 13:31N 35°21' E 139°40'0 0.0
2015-Aug-24 12:31N 35°21' E 139°40'0 0.1
2015-Aug-24 11:31N 35°21' E 139°40'0 0.0
2015-Aug-24 10:28N 35°21' E 139°40'  
Track history (hours):
 
Tides and Currents Weather Stations Pressure Air Temp Water Temp Dewpoint Dewpoint Depression Visibility Wind Speed Wind Dir Waves Ship Positions

Otagawa

Last reported at 2015-Sep-03 10:20 UTC. Time now 2015-Sep-03 10:55 UTC.
Position N 35°01' E 139°29'.

Length 70 m; draft 4 m.

Type: Cargo ship. MMSI: 431001328.

Date/timePositionNaut miles runAvg speedWind from/ knotsBaromVisibWave heightAir tempDewpointWater temp
2015-Sep-03 10:20N 35°01' E 139°29'810.8
2015-Sep-03 09:33N 35°06' E 139°38'10 9.8
2015-Sep-03 08:33N 35°12' E 139°46'9 9.5
2015-Sep-03 07:33N 35°21' E 139°42'6 6.1
2015-Sep-03 06:33N 35°28' E 139°42'0 0.0
2015-Sep-03 05:33N 35°28' E 139°42'3 3.3
2015-Sep-03 04:32N 35°29' E 139°45'0 0.0
2015-Sep-03 03:32N 35°29' E 139°45'4 4.3
2015-Sep-03 02:33N 35°25' E 139°46'1010.1
2015-Sep-03 01:33N 35°15' E 139°47'1110.7
2015-Sep-03 00:33N 35°05' E 139°43'23 0.7
2015-Sep-01 13:29N 34°50' E 139°21'1010.9
2015-Sep-01 12:32N 34°50' E 139°34'1111.1
2015-Sep-01 11:32N 34°51' E 139°47'1211.5
2015-Sep-01 10:32N 34°54' E 140°01'1111.3
2015-Sep-01 09:33N 35°01' E 140°11'10 9.2
2015-Sep-01 08:30N 35°06' E 140°21'9 9.7
2015-Sep-01 07:31N 35°14' E 140°29'1111.1
2015-Sep-01 06:33N 35°22' E 140°37'1211.2
2015-Sep-01 05:29N 35°32' E 140°45'1111.2
2015-Sep-01 04:33N 35°40' E 140°53'11 9.8
2015-Sep-01 03:24N 35°51' E 140°50'8 7.7
2015-Sep-01 02:24N 35°56' E 140°42'3 3.2
2015-Sep-01 01:33N 35°56' E 140°39'0 0.0
2015-Sep-01 00:30N 35°56' E 140°39'0 0.0
2015-Aug-31 23:33N 35°56' E 140°39'0 0.0
2015-Aug-31 22:30N 35°56' E 140°39'0 0.0
2015-Aug-31 21:24N 35°56' E 140°39'0 0.0
2015-Aug-31 20:30N 35°56' E 140°39'0 0.0
2015-Aug-31 18:24N 35°56' E 140°39'0 0.0
2015-Aug-31 17:30N 35°56' E 140°39'0 0.0
2015-Aug-31 15:30N 35°56' E 140°39'1 1.2
2015-Aug-31 14:33N 35°55' E 140°40'1110.6
2015-Aug-31 13:30N 36°06' E 140°44'53 1.2
2015-Aug-29 18:30N 35°14' E 140°31'1510.7
2015-Aug-29 17:08N 35°04' E 140°19'610.5
2015-Aug-29 16:33N 35°01' E 140°13'1010.1
2015-Aug-29 15:32N 34°55' E 140°02'17 7.7
2015-Aug-29 13:16N 35°02' E 139°43'811.7
2015-Aug-29 12:34N 35°10' E 139°46'1111.0
2015-Aug-29 11:34N 35°21' E 139°42'5 5.2
2015-Aug-29 10:32N 35°26' E 139°41'0 0.3
2015-Aug-29 09:34N 35°27' E 139°41'9 9.0
2015-Aug-29 08:33N 35°32' E 139°50'6 4.9
2015-Aug-29 07:23N 35°37' E 139°46'0 0.0
2015-Aug-29 06:32N 35°37' E 139°46'0 0.0
2015-Aug-29 05:28N 35°37' E 139°46'0 0.0
2015-Aug-29 04:23N 35°37' E 139°46'0 0.0
2015-Aug-29 03:29N 35°37' E 139°46'7 7.1
2015-Aug-29 02:33N 35°32' E 139°52'9 9.4
2015-Aug-29 01:33N 35°24' E 139°46'8 8.3
2015-Aug-29 00:33N 35°16' E 139°47'9 8.9
2015-Aug-28 23:33N 35°07' E 139°46'10 9.4
2015-Aug-28 22:29N 34°57' E 139°44'11 9.6
2015-Aug-28 21:21N 34°53' E 139°56'1011.6
2015-Aug-28 20:31N 34°59' E 140°06'1211.5
2015-Aug-28 19:31N 35°05' E 140°17'1210.6
2015-Aug-28 18:24N 35°14' E 140°28'910.7
2015-Aug-28 17:33N 35°21' E 140°34'1111.0
2015-Aug-28 16:33N 35°30' E 140°43'3310.6
2015-Aug-28 13:26N 36°01' E 140°55'50 1.0
2015-Aug-26 10:16N 35°14' E 140°33'2011.7
2015-Aug-26 08:33N 35°01' E 140°15'10 9.9
2015-Aug-26 07:32N 34°56' E 140°04'16 8.1
2015-Aug-26 05:33N 34°55' E 139°44'1111.0
2015-Aug-26 04:33N 35°06' E 139°45'1010.4
2015-Aug-26 03:33N 35°17' E 139°45'6 5.9
2015-Aug-26 02:31N 35°21' E 139°40'0 0.0
2015-Aug-26 01:31N 35°21' E 139°40'0 0.0
2015-Aug-26 00:31N 35°21' E 139°40'0 0.1
2015-Aug-25 23:31N 35°21' E 139°40'0 0.0
2015-Aug-25 22:31N 35°21' E 139°40'0 0.0
2015-Aug-25 21:31N 35°21' E 139°40'0 0.0
2015-Aug-25 20:31N 35°21' E 139°40'0 0.1
2015-Aug-25 19:31N 35°21' E 139°40'0 0.0
2015-Aug-25 18:31N 35°21' E 139°40'0 0.0
2015-Aug-25 17:31N 35°21' E 139°40'0 0.0
2015-Aug-25 16:31N 35°21' E 139°40'0 0.0
2015-Aug-25 15:31N 35°21' E 139°40'0 0.0
2015-Aug-25 14:31N 35°21' E 139°40'0 0.0
2015-Aug-25 13:31N 35°21' E 139°40'0 0.0
2015-Aug-25 12:31N 35°21' E 139°40'0 0.0
2015-Aug-25 11:31N 35°21' E 139°40'0 0.0
2015-Aug-25 10:31N 35°21' E 139°40'0 0.0
2015-Aug-25 09:31N 35°21' E 139°40'0 0.0
2015-Aug-25 08:31N 35°21' E 139°40'0 0.0
2015-Aug-25 07:31N 35°21' E 139°40'0 0.0
2015-Aug-25 06:31N 35°21' E 139°40'0 0.0
2015-Aug-25 05:31N 35°21' E 139°40'0 0.0
2015-Aug-25 04:31N 35°21' E 139°40'0 0.0
2015-Aug-25 03:31N 35°21' E 139°40'0 0.0
2015-Aug-25 02:31N 35°21' E 139°40'0 0.0
2015-Aug-25 01:31N 35°21' E 139°40'0 0.0
2015-Aug-25 00:31N 35°21' E 139°40'0 0.0
2015-Aug-24 23:31N 35°21' E 139°40'0 0.0
2015-Aug-24 22:31N 35°21' E 139°40'0 0.0
2015-Aug-24 21:31N 35°21' E 139°40'0 0.0
2015-Aug-24 20:31N 35°21' E 139°40'0 0.0
2015-Aug-24 19:31N 35°21' E 139°40'0 0.0
2015-Aug-24 18:31N 35°21' E 139°40'0 0.0
2015-Aug-24 17:31N 35°21' E 139°40'0 0.0
2015-Aug-24 16:31N 35°21' E 139°40'0 0.0
2015-Aug-24 15:31N 35°21' E 139°40'0 0.0
2015-Aug-24 14:31N 35°21' E 139°40'0 0.0
2015-Aug-24 13:31N 35°21' E 139°40'0 0.0
2015-Aug-24 12:31N 35°21' E 139°40'0 0.1
2015-Aug-24 11:31N 35°21' E 139°40'0 0.0
2015-Aug-24 10:28N 35°21' E 139°40'  

Dump ship's entire track history